Flight Track Log - Related Links

Times and Time Zones

All times are in EDT time to prevent confusion due to time zone crossing. See the EJA922 flight status page for this flight to view local times or setup timezone preferences in your user account.


Time Position Orientation Groundspeed Altitude Reporting Facility
EDT Latitude Longitude Course Direction KTS MPH feet Rate Location/Type
Tue 12:09:06 PM 40.9469 -98.3144 230° Southwest 179 206 2,800  Level Minneapolis Center
Tue 12:10:08 PM 40.9094 -98.3742 220° Southwest 254 292 6,700 3,919 Climbing Minneapolis Center
Tue 12:11:10 PM 40.8819 -98.4628 248° West 252 290 10,900 3,823 Climbing Minneapolis Center
Tue 12:12:12 PM 40.8517 -98.5642 248° West 284 327 14,600 3,242 Climbing Minneapolis Center
Tue 12:13:14 PM 40.8072 -98.7086 248° West 346 398 17,600 2,274 Climbing Minneapolis Center
Tue 12:14:16 PM 40.7686 -98.8292 247° West 379 436 19,300 1,742 Climbing Minneapolis Center
Tue 12:15:18 PM 40.7217 -98.9825 248° West 403 464 21,200 1,701 Climbing Minneapolis Center
Tue 12:16:23 PM 40.6772 -99.1278 248° West 420 483 22,900 1,512 Climbing Denver Center
Tue 12:17:25 PM 40.6294 -99.2747 247° West 430 495 24,400 1,452 Climbing Denver Center
Tue 12:18:27 PM 40.5822 -99.4253 248° West 439 505 25,900 1,452 Climbing Denver Center
Tue 12:19:29 PM 40.5228 -99.6119 247° West 458 527 27,400 1,403 Climbing Denver Center
Tue 12:20:31 PM 40.4725 -99.7714 248° West 469 540 28,800 1,248 Climbing Denver Center
Tue 12:21:34 PM 40.4136 -99.9189 242° Southwest 481 554 30,000 1,248 Climbing Denver Center
Tue 12:22:36 PM 40.3317 -100.0917 238° Southwest 493 567 31,400 1,500 Climbing Denver Center
Tue 12:23:38 PM 40.2603 -100.2417 238° Southwest 501 577 33,100 1,258 Climbing Denver Center
Tue 12:24:40 PM 40.1758 -100.4175 238° Southwest 503 579 34,000 435 Climbing Denver Center
Tue 12:25:42 PM 40.0989 -100.5778 238° Southwest 533 613 34,000 435 Level Denver Center
Tue 12:26:44 PM 40.0081 -100.7672 238° Southwest 547 629 34,900 919 Climbing Denver Center
Tue 12:27:46 PM 39.9303 -100.9253 237° Southwest 543 625 35,900 919 Climbing Denver Center
Tue 12:28:48 PM 39.8533 -101.0831 238° Southwest 540 621 36,800 968 Climbing Denver Center
Tue 12:29:50 PM 39.7636 -101.2647 237° Southwest 539 620 37,900 968 Climbing Denver Center
Tue 12:30:52 PM 39.6869 -101.4203 237° Southwest 536 617 38,800 960 Climbing Denver Center
Tue 12:31:55 PM 39.5992 -101.5964 237° Southwest 524 603 39,900 576 Climbing Denver Center
Tue 12:32:57 PM 39.5236 -101.7472 237° Southwest 522 601 40,000 48 Climbing Denver Center
Tue 12:33:59 PM 39.4333 -101.9258 237° Southwest 528 608 40,000  Level Denver Center
Tue 12:35:01 PM 39.3564 -102.0772 237° Southwest 528 608 40,000  Level Denver Center
Tue 12:36:03 PM 39.2667 -102.2564 237° Southwest 527 606 40,000  Level Denver Center
Tue 12:37:05 PM 39.1894 -102.4069 237° Southwest 527 606 40,000  Level Denver Center
Tue 12:38:07 PM 39.1003 -102.5808 237° Southwest 526 605 40,000  Level Denver Center
Tue 12:39:09 PM 39.0228 -102.7306 236° Southwest 524 603 40,000  Level Denver Center
Tue 12:40:11 PM 38.9436 -102.8842 237° Southwest 526 605 40,000  Level Denver Center
Tue 12:41:13 PM 38.8617 -103.0392 236° Southwest 526 605 40,000  Level Denver Center
Tue 12:42:15 PM 38.7642 -103.2258 236° Southwest 526 605 40,000  Level Denver Center
Tue 12:43:18 PM 38.6822 -103.3819 236° Southwest 526 605 40,000  Level Denver Center
Tue 12:44:20 PM 38.6003 -103.5350 236° Southwest 525 604 40,000  Level Denver Center
Tue 12:45:22 PM 38.5197 -103.6886 236° Southwest 524 603 40,000  Level Denver Center
Tue 12:46:24 PM 38.4378 -103.8408 236° Southwest 521 600 40,000  Level Denver Center
Tue 12:47:26 PM 38.3578 -103.9906 236° Southwest 514 592 40,000  Level Denver Center
Tue 12:48:28 PM 38.2772 -104.1394 235° Southwest 513 590 40,000  Level Denver Center
Tue 12:49:30 PM 38.1811 -104.3189 236° Southwest 512 589 40,000  Level Denver Center
Tue 12:50:32 PM 38.1011 -104.4667 236° Southwest 512 589 40,000  Level Denver Center
Tue 12:51:34 PM 38.0186 -104.6156 235° Southwest 512 589 40,000  Level Denver Center
Tue 12:52:36 PM 37.9389 -104.7617 235° Southwest 511 588 40,000  Level Denver Center
Tue 12:53:38 PM 37.8583 -104.9078 235° Southwest 509 586 40,000  Level Denver Center
Tue 12:54:40 PM 37.7772 -105.0536 235° Southwest 508 585 40,000  Level Denver Center
Tue 12:55:43 PM 37.6786 -105.2264 234° Southwest 508 585 40,000  Level Denver Center
Tue 12:56:45 PM 37.5964 -105.3714 234° Southwest 508 585 40,000  Level Denver Center
Tue 12:57:47 PM 37.5128 -105.5144 234° Southwest 508 585 40,000  Level Denver Center
Tue 12:58:49 PM 37.4186 -105.6758 234° Southwest 509 586 40,000  Level Denver Center
Tue 12:59:51 PM 37.3386 -105.8144 234° Southwest 509 586 40,000  Level Denver Center
Tue 01:00:53 PM 37.2433 -105.9764 234° Southwest 511 588 40,000  Level Denver Center
Tue 01:01:55 PM 37.1622 -106.1158 234° Southwest 514 592 40,000  Level Denver Center
Tue 01:02:57 PM 37.0800 -106.2531 233° Southwest 515 593 40,000  Level Denver Center
Tue 01:03:59 PM 36.9856 -106.4131 234° Southwest 513 590 40,000  Level Denver Center
Tue 01:05:02 PM 36.9050 -106.5503 234° Southwest 513 590 40,000  Level Denver Center
Tue 01:06:04 PM 36.8114 -106.7075 233° Southwest 509 586 40,000  Level Denver Center
Tue 01:07:06 PM 36.7317 -106.8397 233° Southwest 499 574 40,000  Level Denver Center
Tue 01:08:08 PM 36.6392 -106.9939 233° Southwest 499 574 40,000  Level Denver Center
Tue 01:09:10 PM 36.5597 -107.1261 233° Southwest 498 573 40,000  Level Denver Center
Tue 01:10:12 PM 36.4661 -107.2800 233° Southwest 498 573 40,000  Level Denver Center
Tue 01:11:14 PM 36.3858 -107.4131 233° Southwest 498 573 40,000  Level Denver Center
Tue 01:11:48 PM 36.3317 -107.5017 233° Southwest 499 574 40,000  Level Albuquerque Center
Tue 01:12:50 PM 36.2517 -107.6328 233° Southwest 499 574 40,000  Level Albuquerque Center
Tue 01:13:52 PM 36.1581 -107.7839 233° Southwest 499 574 40,000  Level Albuquerque Center
Tue 01:14:54 PM 36.0775 -107.9158 233° Southwest 499 574 40,000  Level Albuquerque Center
Tue 01:15:56 PM 35.9825 -108.0672 232° Southwest 499 574 40,000  Level Albuquerque Center
Tue 01:16:58 PM 35.9011 -108.1975 232° Southwest 498 573 40,000  Level Albuquerque Center
Tue 01:18:00 PM 35.8203 -108.3283 233° Southwest 499 574 40,000  Level Albuquerque Center
Tue 01:19:02 PM 35.7250 -108.4792 232° Southwest 498 573 40,000 -435 Level Albuquerque Center
Tue 01:20:04 PM 35.6428 -108.6081 232° Southwest 498 573 39,100 -968 Descending Albuquerque Center
Tue 01:21:06 PM 35.5475 -108.7583 232° Southwest 498 573 38,000 -532 Descending Albuquerque Center
Tue 01:22:08 PM 35.4642 -108.8864 231° Southwest 497 572 38,000  Level Albuquerque Center
Tue 01:23:10 PM 35.3578 -109.0261 227° Southwest 498 573 38,000 -384 Level Albuquerque Center
Tue 01:24:13 PM 35.2661 -109.1419 226° Southwest 498 573 37,200 -864 Descending Albuquerque Center
Tue 01:25:15 PM 35.1758 -109.2589 227° Southwest 494 568 36,200 -581 Descending Albuquerque Center
Tue 01:26:17 PM 35.0700 -109.3947 226° Southwest 494 568 36,000 -97 Descending Albuquerque Center
Tue 01:27:19 PM 34.9772 -109.5136 226° Southwest 498 573 36,000  Level Albuquerque Center
Tue 01:28:21 PM 34.8692 -109.6489 226° Southwest 498 573 36,000  Level Albuquerque Center
Tue 01:29:23 PM 34.7778 -109.7664 227° Southwest 498 573 36,000  Level Albuquerque Center
Tue 01:30:25 PM 34.6858 -109.9167 233° Southwest 497 572 36,000  Level Albuquerque Center
Tue 01:31:27 PM 34.6306 -110.0647 246° West 499 574 36,000  Level Albuquerque Center
Tue 01:32:29 PM 34.5700 -110.2411 247° West 503 579 36,000 -1,016 Level Albuquerque Center
Tue 01:33:31 PM 34.5128 -110.3803 244° Southwest 492 566 33,900 -1,984 Descending Albuquerque Center
Tue 01:34:33 PM 34.4661 -110.5161 247° West 452 520 31,900 -1,790 Descending Albuquerque Center
Tue 01:35:35 PM 34.4181 -110.6381 244° Southwest 412 474 30,200 -1,632 Descending Albuquerque Center
Tue 01:36:38 PM 34.3681 -110.7572 243° Southwest 402 463 28,500 -1,935 Descending Albuquerque Center
Tue 01:37:39 PM 34.2886 -110.8814 232° Southwest 395 455 26,200 -1,902 Descending Albuquerque Center
Tue 01:38:41 PM 34.2158 -110.9769 227° Southwest 390 449 24,600 -1,548 Descending Albuquerque Center
Tue 01:39:43 PM 34.1408 -111.0731 227° Southwest 390 449 23,000 -1,742 Descending Albuquerque Center
Tue 01:40:45 PM 34.0681 -111.1669 227° Southwest 389 448 21,000 -1,887 Descending Albuquerque Center
Tue 01:41:47 PM 33.9978 -111.2553 226° Southwest 377 434 19,100 -1,839 Descending Albuquerque Center
Tue 01:42:49 PM 33.9319 -111.3400 227° Southwest 349 402 17,200 -1,742 Descending Albuquerque Center
Tue 01:43:51 PM 33.8719 -111.4203 228° Southwest 324 373 15,500 -1,839 Descending Albuquerque Center
Tue 01:44:53 PM 33.8194 -111.5225 238° Southwest 299 344 13,400 -1,887 Descending Albuquerque Center
Tue 01:45:55 PM 33.7711 -111.6128 237° Southwest 315 362 11,600 -1,645 Descending Albuquerque Center
Tue 01:46:57 PM 33.7261 -111.6997 238° Southwest 306 352 10,000 -774 Descending Albuquerque Center
Tue 01:47:59 PM 33.6811 -111.7814 237° Southwest 293 337 10,000  Level Albuquerque Center
Tue 01:49:01 PM 33.6375 -111.8617 237° Southwest 284 327 10,000 -629 Level Albuquerque Center
Tue 01:50:03 PM 33.5994 -111.9314 237° Southwest 253 291 8,700 -1,016 Descending Albuquerque Center
Tue 01:51:05 PM 33.5628 -112.0011 238° Southwest 246 283 7,900 -894 Descending Albuquerque Center
Tue 01:51:37 PM 33.5333 -112.0500 234° Southwest 236 272 7,300 -837 Descending Phoenix TRACON
Tue 01:52:31 PM 33.5333 -112.1167 270° West 238 274 6,700 -783 Descending Phoenix TRACON
Tue 01:53:09 PM 33.5256 -112.1606 258° West 237 273 6,100 -960 Descending Albuquerque Center
Tue 01:54:11 PM 33.4961 -112.2117 235° Southwest 227 261 5,100 -968 Descending Albuquerque Center
Tue 01:55:13 PM 33.4500 -112.1686 142° Southeast 221 254 4,100 -1,113 Descending Albuquerque Center
Tue 01:56:15 PM 33.4294 -112.1094 113° Southeast 200 230 2,800 -1,113 Descending Albuquerque Center
Tue 01:57:17 PM 33.4294 -112.0583 90° East 155 178 1,800 -823 Descending Albuquerque Center
Tue 01:58:19 PM 33.4297 -112.0078 90° East 144 166 1,100 -677 Descending Albuquerque Center

Login

Don't have an account? Register now (free) for customized features, flight alerts, and more!